Notre-Dame-Du-Laus, Canada
Current Conditions -  °F | °C
As of 7:00 PM on Saturday 25 Oct 2014 (Local Time) from CYND Reporting Station
Broken Clouds Broken Clouds  
Wind Chill: 46°   Ceiling: 3000
Heat Index: 48°   Visibility: 15mi
Dew Point: 48°   Wind: 6mph
Humidity: 100%   Direction: 280°W
Pressure: 29.45"   Gusts: NA
Location:  46.08°N, 75.62°W
Report Text: CYND 252300Z 28005KT 15SM BKN030 09/09 A2945 RMK SC5 SLP974
Loading
Personal Weather Stations






























Interactive Weather Map
Tropical Storm Tracking
New forecast layout! Learn more

10-Day Weather Forecast

Advertisements
Track Severe Weather on mobile